A80 TRACON Summary / KATL TAF
ATL TRACON Summary:
Expect VFR conditions overnight under a FEW/SCT070 deck. Surface winds will be 3-6kts and mainly from the south to southeast. No significant flight hazards are expected in the TRACON airspace.

Updated:8/29/2014 7:45 PM
ATL Terminal Aerodrome Forecast:

FTUS80 KATL 300333 AAA
KATL 300330Z 3004/3106 13004KT P6SM BKN080
     FM301200 14005KT P6SM SCT025 BKN070
     FM301600 17008KT P6SM VCSH SCT035 BKN060 PROB30 3018/3024 6SM
      TSRA BKN045CB
     FM310000 18005KT P6SM SCT050 SCT150 BKN250
ATL TRACON Area Remark:
NONE.
Convective Gate Forecast / Collaborative Convective Forecast Product / Vertical Wind Profile
Convective Gate Forecast
AIRMETs & SIGMETS/ Southeast Radar loop / Satellite Image (click on image to enlarge)

Southeast Radar Loop

 



USA.gov is the U.S. government's official web portal to all federal, state and local government web resources and services.